Time;durP1;ratioP1;P1;durP2;ratioP2;P2;SDS_P1;SDS_P2;PMS_P1;PMS_P2;Temp;Humidity;BMP_temperature;BMP_pressure;BME280_temperature;BME280_humidity;BME280_pressure;Samples;Min_cycle;Max_cycle;Signal;HPM_P1;HPM_P2
2023/08/21 00:01:07;;;;;;;4.38;2.67;;;;;;;;;;4995865;28;20225;-82
2023/08/21 00:03:39;;;;;;;2.95;2.75;;;;;;;;;;4993185;28;20233;-83
2023/08/21 00:06:08;;;;;;;3.25;2.83;;;;;;;;;;4990098;28;20229;-83
2023/08/21 00:08:36;;;;;;;3.08;2.70;;;;;;;;;;4992144;28;20314;-82
2023/08/21 00:11:04;;;;;;;3.25;2.83;;;;;;;;;;4970006;28;20336;-83
2023/08/21 00:13:33;;;;;;;2.67;2.58;;;;;;;;;;4978360;28;20668;-82
2023/08/21 00:16:01;;;;;;;3.22;2.92;;;;;;;;;;4992626;28;20591;-83
2023/08/21 00:18:36;;;;;;;10.70;2.38;;;;;;;;;;4991629;28;20597;-82
2023/08/21 00:21:07;;;;;;;2.78;2.53;;;;;;;;;;4991322;28;20207;-84
2023/08/21 00:23:35;;;;;;;3.05;2.85;;;;;;;;;;4991690;28;20594;-83
2023/08/21 00:26:04;;;;;;;3.13;2.90;;;;;;;;;;4992182;28;20224;-82
2023/08/21 00:28:34;;;;;;;3.20;2.88;;;;;;;;;;4993300;28;20213;-85
2023/08/21 00:31:04;;;;;;;2.70;2.50;;;;;;;;;;4992571;28;20308;-80
2023/08/21 00:33:34;;;;;;;3.17;2.97;;;;;;;;;;4975849;28;20206;-83
2023/08/21 00:36:00;;;;;;;3.33;3.13;;;;;;;;;;4991641;28;20605;-83
2023/08/21 00:38:29;;;;;;;2.80;2.60;;;;;;;;;;4991467;28;20213;-82
2023/08/21 00:40:58;;;;;;;3.08;2.67;;;;;;;;;;4991990;28;20249;-83
2023/08/21 00:43:26;;;;;;;2.67;2.40;;;;;;;;;;4979313;28;20363;-83
2023/08/21 00:45:53;;;;;;;4.97;2.28;;;;;;;;;;4990596;28;20212;-81
2023/08/21 00:48:24;;;;;;;3.25;3.05;;;;;;;;;;4991656;28;20231;-83
2023/08/21 00:50:54;;;;;;;3.15;2.88;;;;;;;;;;4989747;28;20809;-83
2023/08/21 00:53:22;;;;;;;3.13;2.92;;;;;;;;;;4990289;28;20221;-82
2023/08/21 00:55:52;;;;;;;2.88;2.63;;;;;;;;;;4991258;28;20604;-83
2023/08/21 00:58:20;;;;;;;2.88;2.67;;;;;;;;;;4991991;28;20231;-81
2023/08/21 01:00:51;;;;;;;4.35;3.13;;;;;;;;;;4990616;28;20202;-84
2023/08/21 01:03:21;;;;;;;2.45;2.35;;;;;;;;;;4992025;28;20200;-83
2023/08/21 01:05:50;;;;;;;2.67;2.47;;;;;;;;;;4990792;28;20737;-83
2023/08/21 01:08:31;;;;;;;2.70;2.50;;;;;;;;;;4990904;28;20209;-83
2023/08/21 01:11:04;;;;;;;2.97;2.78;;;;;;;;;;4990489;28;20599;-82
2023/08/21 01:13:36;;;;;;;1.92;1.83;;;;;;;;;;4991213;28;20295;-82
2023/08/21 01:16:04;;;;;;;2.83;2.42;;;;;;;;;;4990730;28;20287;-85
2023/08/21 01:18:31;;;;;;;2.70;2.50;;;;;;;;;;4990589;28;20276;-82
2023/08/21 01:20:59;;;;;;;2.67;2.47;;;;;;;;;;4990853;28;20208;-83
2023/08/21 01:23:33;;;;;;;3.40;3.20;;;;;;;;;;4990191;28;20200;-82
2023/08/21 01:26:01;;;;;;;2.28;2.17;;;;;;;;;;4990482;28;20499;-82
2023/08/21 01:28:30;;;;;;;2.33;2.17;;;;;;;;;;4990891;28;20288;-83
2023/08/21 01:31:00;;;;;;;2.45;2.35;;;;;;;;;;4990951;28;20297;-82
2023/08/21 01:33:28;;;;;;;2.92;2.80;;;;;;;;;;4998987;28;20224;-83
2023/08/21 01:35:57;;;;;;;2.50;2.30;;;;;;;;;;5006713;28;20206;-85
2023/08/21 01:38:26;;;;;;;2.90;2.63;;;;;;;;;;5006408;28;20252;-83
2023/08/21 01:40:55;;;;;;;2.63;2.45;;;;;;;;;;5013807;28;20314;-83
2023/08/21 01:43:23;;;;;;;3.20;3.00;;;;;;;;;;5005030;28;20220;-82
2023/08/21 01:45:50;;;;;;;2.53;2.33;;;;;;;;;;4971925;28;20617;-83
2023/08/21 01:48:19;;;;;;;2.33;2.22;;;;;;;;;;4970093;28;20201;-82
2023/08/21 01:50:47;;;;;;;2.53;2.33;;;;;;;;;;4970402;28;20585;-83
2023/08/21 01:53:15;;;;;;;2.45;2.25;;;;;;;;;;4970490;28;20210;-82
2023/08/21 01:55:46;;;;;;;3.15;2.88;;;;;;;;;;4970690;28;20324;-83
2023/08/21 01:58:15;;;;;;;7.85;2.83;;;;;;;;;;4971798;28;20224;-83
2023/08/21 02:00:46;;;;;;;3.67;2.80;;;;;;;;;;4970699;28;20266;-82
2023/08/21 02:03:15;;;;;;;2.80;2.60;;;;;;;;;;4970734;28;20704;-82
2023/08/21 02:05:45;;;;;;;3.40;3.20;;;;;;;;;;4971131;28;20238;-82
2023/08/21 02:08:14;;;;;;;2.55;2.35;;;;;;;;;;4969840;28;20245;-82
2023/08/21 02:10:51;;;;;;;3.08;2.80;;;;;;;;;;4970508;28;20250;-82
2023/08/21 02:13:20;;;;;;;3.00;2.65;;;;;;;;;;4971266;28;20210;-82
2023/08/21 02:15:48;;;;;;;4.97;2.97;;;;;;;;;;4970673;28;20213;-82
2023/08/21 02:18:18;;;;;;;2.58;2.47;;;;;;;;;;4970716;28;20648;-81
2023/08/21 02:20:48;;;;;;;2.78;2.58;;;;;;;;;;4969689;28;20558;-82
2023/08/21 02:23:16;;;;;;;4.35;2.80;;;;;;;;;;4970245;28;20217;-82
2023/08/21 02:25:44;;;;;;;2.70;2.45;;;;;;;;;;4970826;28;20211;-84
2023/08/21 02:28:13;;;;;;;7.28;2.95;;;;;;;;;;4970364;28;20365;-83
2023/08/21 02:30:43;;;;;;;3.10;2.90;;;;;;;;;;4970571;28;20275;-83
2023/08/21 02:33:12;;;;;;;3.30;3.00;;;;;;;;;;4970606;28;20209;-83
2023/08/21 02:35:42;;;;;;;3.13;2.88;;;;;;;;;;4971238;28;20208;-84
2023/08/21 02:38:11;;;;;;;2.67;2.47;;;;;;;;;;4970870;28;20234;-82
2023/08/21 02:40:39;;;;;;;3.33;3.05;;;;;;;;;;4970680;28;20599;-83
2023/08/21 02:43:08;;;;;;;9.82;3.47;;;;;;;;;;4970810;28;20209;-83
2023/08/21 02:45:36;;;;;;;10.43;3.05;;;;;;;;;;4970487;28;20213;-82
2023/08/21 02:48:05;;;;;;;2.95;2.75;;;;;;;;;;4970237;28;20446;-82
2023/08/21 02:50:37;;;;;;;3.15;2.88;;;;;;;;;;4970052;28;20235;-83
2023/08/21 02:53:06;;;;;;;2.63;2.47;;;;;;;;;;4969645;28;20608;-82
2023/08/21 02:55:35;;;;;;;3.42;2.72;;;;;;;;;;4970741;28;20651;-82
2023/08/21 02:58:02;;;;;;;3.42;3.22;;;;;;;;;;4970101;28;20663;-83
2023/08/21 03:00:31;;;;;;;2.83;2.63;;;;;;;;;;4971305;28;20201;-84
2023/08/21 03:02:59;;;;;;;3.20;2.95;;;;;;;;;;4971109;28;20855;-82
2023/08/21 03:05:28;;;;;;;2.80;2.65;;;;;;;;;;4970581;28;20201;-82
2023/08/21 03:07:57;;;;;;;9.38;3.08;;;;;;;;;;4974379;28;20335;-83
2023/08/21 03:10:27;;;;;;;2.90;2.70;;;;;;;;;;4974402;28;20245;-82
2023/08/21 03:13:00;;;;;;;5.60;2.90;;;;;;;;;;4974930;28;20283;-83
2023/08/21 03:15:28;;;;;;;2.83;2.67;;;;;;;;;;4970932;28;20197;-84
2023/08/21 03:17:57;;;;;;;2.90;2.70;;;;;;;;;;4970394;28;20299;-82
2023/08/21 03:20:25;;;;;;;2.45;2.35;;;;;;;;;;4973665;28;20678;-83
2023/08/21 03:22:55;;;;;;;2.85;2.60;;;;;;;;;;4973572;28;20343;-84
2023/08/21 03:25:25;;;;;;;2.67;2.47;;;;;;;;;;4973875;28;20294;-83
2023/08/21 03:27:55;;;;;;;3.10;2.90;;;;;;;;;;4973621;28;20692;-81
2023/08/21 03:30:23;;;;;;;5.72;4.82;;;;;;;;;;4976617;28;20272;-82
2023/08/21 03:32:51;;;;;;;8.43;5.82;;;;;;;;;;4976147;28;20296;-82
2023/08/21 03:35:19;;;;;;;4.32;3.92;;;;;;;;;;4974972;28;20268;-83
2023/08/21 03:37:48;;;;;;;3.25;3.05;;;;;;;;;;4973426;28;20243;-84
2023/08/21 03:40:17;;;;;;;7.18;3.13;;;;;;;;;;4973188;28;20233;-82
2023/08/21 03:42:44;;;;;;;3.10;2.90;;;;;;;;;;4975274;28;20571;-83
2023/08/21 03:45:14;;;;;;;3.40;3.20;;;;;;;;;;4974695;28;20206;-83
2023/08/21 03:47:42;;;;;;;3.33;3.13;;;;;;;;;;4974251;28;20205;-83
2023/08/21 03:50:11;;;;;;;4.15;3.47;;;;;;;;;;4974773;28;20230;-83
2023/08/21 03:52:39;;;;;;;3.78;3.47;;;;;;;;;;4973464;28;20562;-83
2023/08/21 03:55:07;;;;;;;4.15;3.60;;;;;;;;;;4973398;28;20200;-83
2023/08/21 03:57:36;;;;;;;3.30;3.00;;;;;;;;;;4974022;28;20264;-83
2023/08/21 04:00:06;;;;;;;2.90;2.70;;;;;;;;;;4974481;28;20660;-84
2023/08/21 04:02:34;;;;;;;4.25;2.65;;;;;;;;;;4973445;28;20190;-83
2023/08/21 04:05:03;;;;;;;3.13;2.92;;;;;;;;;;4974069;28;20217;-83
2023/08/21 04:07:32;;;;;;;3.22;2.92;;;;;;;;;;4973556;28;20213;-82
2023/08/21 04:10:00;;;;;;;3.17;2.88;;;;;;;;;;4973145;28;20249;-83
2023/08/21 04:12:27;;;;;;;3.22;2.78;;;;;;;;;;4974450;28;20207;-83
2023/08/21 04:14:58;;;;;;;4.50;3.25;;;;;;;;;;4974890;28;20214;-83
2023/08/21 04:17:27;;;;;;;3.05;2.83;;;;;;;;;;4973581;28;20214;-82
2023/08/21 04:19:56;;;;;;;3.88;3.33;;;;;;;;;;4973488;28;20528;-83
2023/08/21 04:22:27;;;;;;;4.53;3.38;;;;;;;;;;4973012;28;20294;-83
2023/08/21 04:24:59;;;;;;;3.50;3.30;;;;;;;;;;4974077;28;20206;-84
2023/08/21 04:27:27;;;;;;;6.32;3.03;;;;;;;;;;4974521;28;20253;-84
2023/08/21 04:29:58;;;;;;;4.50;3.63;;;;;;;;;;4973412;28;20206;-84
2023/08/21 04:32:25;;;;;;;3.55;3.35;;;;;;;;;;4973966;28;20214;-83
2023/08/21 04:34:56;;;;;;;3.30;3.10;;;;;;;;;;4974693;28;20309;-83
2023/08/21 04:37:26;;;;;;;13.38;8.20;;;;;;;;;;4972944;28;20194;-84
2023/08/21 04:39:56;;;;;;;5.15;3.58;;;;;;;;;;4974438;28;20214;-82
2023/08/21 04:42:24;;;;;;;3.40;3.20;;;;;;;;;;4974972;28;20198;-83
2023/08/21 04:44:53;;;;;;;3.10;2.90;;;;;;;;;;4974724;28;20281;-83
2023/08/21 04:47:23;;;;;;;3.95;2.97;;;;;;;;;;4975178;28;20199;-84
2023/08/21 04:49:57;;;;;;;3.95;3.75;;;;;;;;;;4992810;28;20241;-85
2023/08/21 04:52:26;;;;;;;13.95;10.45;;;;;;;;;;4994704;28;20189;-85
2023/08/21 04:54:53;;;;;;;4.25;3.95;;;;;;;;;;4994302;28;20243;-86
2023/08/21 04:57:22;;;;;;;7.03;5.43;;;;;;;;;;4993714;28;20201;-85
2023/08/21 04:59:53;;;;;;;5.43;4.45;;;;;;;;;;4993850;28;20208;-84
2023/08/21 05:02:23;;;;;;;10.25;3.92;;;;;;;;;;4993888;28;20605;-83
2023/08/21 05:04:51;;;;;;;4.10;3.80;;;;;;;;;;4994133;28;20705;-83
2023/08/21 05:10:25;;;;;;;12.50;5.68;;;;;;;;;;4983896;28;20237;-84
2023/08/21 05:12:58;;;;;;;7.78;3.95;;;;;;;;;;4993031;28;20561;-83
2023/08/21 05:15:27;;;;;;;3.47;3.15;;;;;;;;;;4993627;28;20208;-84
2023/08/21 05:17:57;;;;;;;4.93;4.40;;;;;;;;;;4991924;28;20243;-85
2023/08/21 05:20:25;;;;;;;4.30;4.00;;;;;;;;;;4992183;28;20264;-82
2023/08/21 05:22:53;;;;;;;4.50;4.10;;;;;;;;;;4992404;28;20698;-83
2023/08/21 05:25:21;;;;;;;3.95;3.60;;;;;;;;;;4993073;28;20208;-83
2023/08/21 05:27:51;;;;;;;4.18;3.85;;;;;;;;;;4997063;28;20201;-84
2023/08/21 05:30:20;;;;;;;8.15;4.10;;;;;;;;;;5008878;28;20256;-85
2023/08/21 05:32:48;;;;;;;4.68;4.32;;;;;;;;;;5009362;28;20199;-83
2023/08/21 05:35:23;;;;;;;10.38;3.80;;;;;;;;;;5008181;28;20201;-83
2023/08/21 05:37:52;;;;;;;4.45;4.15;;;;;;;;;;4993971;28;20235;-84
2023/08/21 05:40:22;;;;;;;6.57;3.95;;;;;;;;;;4991948;28;20878;-84
2023/08/21 05:42:50;;;;;;;4.63;4.07;;;;;;;;;;4978019;28;20216;-82
2023/08/21 05:45:20;;;;;;;7.78;4.28;;;;;;;;;;5011306;28;20219;-82
2023/08/21 05:47:48;;;;;;;4.65;4.38;;;;;;;;;;5010795;28;20220;-83
2023/08/21 05:50:18;;;;;;;4.68;4.38;;;;;;;;;;4991264;28;20298;-83
2023/08/21 05:52:48;;;;;;;4.35;3.95;;;;;;;;;;4996998;28;20258;-83
2023/08/21 05:55:16;;;;;;;5.85;3.45;;;;;;;;;;4991685;28;20279;-83
2023/08/21 05:57:47;;;;;;;29.98;6.50;;;;;;;;;;4991898;28;20244;-84
2023/08/21 06:00:15;;;;;;;4.05;3.75;;;;;;;;;;4995757;28;20276;-85
2023/08/21 06:02:44;;;;;;;8.15;3.85;;;;;;;;;;4996033;28;20630;-83
2023/08/21 06:05:14;;;;;;;5.22;4.13;;;;;;;;;;4993731;28;20271;-84
2023/08/21 06:07:44;;;;;;;4.10;3.80;;;;;;;;;;4991411;28;20227;-84
2023/08/21 06:10:14;;;;;;;4.28;3.20;;;;;;;;;;4989956;28;20317;-82
2023/08/21 06:12:43;;;;;;;9.23;3.70;;;;;;;;;;4990148;28;20566;-84
2023/08/21 06:15:13;;;;;;;4.60;4.18;;;;;;;;;;4993266;28;20204;-85
2023/08/21 06:17:42;;;;;;;4.32;4.10;;;;;;;;;;4996470;28;20268;-84
2023/08/21 06:20:10;;;;;;;5.55;4.28;;;;;;;;;;4988898;28;20200;-87
2023/08/21 06:22:39;;;;;;;4.72;4.03;;;;;;;;;;4990902;28;20204;-84
2023/08/21 06:25:10;;;;;;;4.35;4.05;;;;;;;;;;4990232;28;20307;-83
2023/08/21 06:27:38;;;;;;;3.70;3.40;;;;;;;;;;4989474;28;20682;-84
2023/08/21 06:30:06;;;;;;;4.07;3.78;;;;;;;;;;4990045;28;20241;-84
2023/08/21 06:32:34;;;;;;;3.55;3.35;;;;;;;;;;4989380;28;20228;-84
2023/08/21 06:35:02;;;;;;;3.97;3.63;;;;;;;;;;4988523;28;20673;-84
2023/08/21 06:37:31;;;;;;;4.82;3.85;;;;;;;;;;4988328;28;20212;-83
2023/08/21 06:40:00;;;;;;;4.93;3.72;;;;;;;;;;4989763;28;20224;-83
2023/08/21 06:42:32;;;;;;;3.25;3.13;;;;;;;;;;4988945;28;20205;-84
2023/08/21 06:45:03;;;;;;;5.30;3.63;;;;;;;;;;4971781;28;20194;-86
2023/08/21 06:47:31;;;;;;;5.22;3.35;;;;;;;;;;4987085;28;20681;-84
2023/08/21 06:50:01;;;;;;;3.85;3.55;;;;;;;;;;4993640;28;20213;-83
2023/08/21 06:52:29;;;;;;;5.53;3.40;;;;;;;;;;4983849;28;20208;-83
2023/08/21 06:54:58;;;;;;;4.65;4.00;;;;;;;;;;4990502;28;20204;-84
2023/08/21 06:57:28;;;;;;;4.05;3.75;;;;;;;;;;4994643;28;20204;-83
2023/08/21 06:59:57;;;;;;;3.60;3.40;;;;;;;;;;4992367;28;20228;-84
2023/08/21 07:02:28;;;;;;;3.20;3.00;;;;;;;;;;4989399;28;20284;-85
2023/08/21 07:04:58;;;;;;;5.10;3.65;;;;;;;;;;4990187;28;20607;-84
2023/08/21 07:07:29;;;;;;;3.20;2.97;;;;;;;;;;4989596;28;20205;-85
2023/08/21 07:10:10;;;;;;;3.60;3.50;;;;;;;;;;5002429;28;20684;-85
2023/08/21 07:12:38;;;;;;;6.30;3.40;;;;;;;;;;5008839;28;20192;-85
2023/08/21 07:15:08;;;;;;;5.57;3.28;;;;;;;;;;5009591;28;20220;-84
2023/08/21 07:17:36;;;;;;;8.18;3.70;;;;;;;;;;5009943;28;20192;-84
2023/08/21 07:20:05;;;;;;;5.45;3.35;;;;;;;;;;5008572;28;20232;-84
2023/08/21 07:22:32;;;;;;;2.97;2.78;;;;;;;;;;5009828;28;20636;-84
2023/08/21 07:25:03;;;;;;;12.35;3.30;;;;;;;;;;5010526;28;20196;-84
2023/08/21 07:27:31;;;;;;;3.42;3.20;;;;;;;;;;5008228;28;20204;-85
2023/08/21 07:30:01;;;;;;;4.53;2.60;;;;;;;;;;4968941;28;20213;-84
2023/08/21 07:32:32;;;;;;;3.00;2.88;;;;;;;;;;4970053;28;20212;-85
2023/08/21 07:35:00;;;;;;;2.90;2.63;;;;;;;;;;4971435;28;20690;-85
2023/08/21 07:37:30;;;;;;;2.88;2.78;;;;;;;;;;4969738;28;20220;-84
2023/08/21 07:39:59;;;;;;;3.90;3.50;;;;;;;;;;4970405;28;20233;-84
2023/08/21 07:42:28;;;;;;;5.13;3.35;;;;;;;;;;4970030;28;20593;-82
2023/08/21 07:44:57;;;;;;;4.00;3.70;;;;;;;;;;4969440;28;20206;-84
2023/08/21 07:47:26;;;;;;;3.65;3.45;;;;;;;;;;4970634;28;20287;-84
2023/08/21 07:49:57;;;;;;;4.10;3.80;;;;;;;;;;4970427;28;20237;-85
2023/08/21 07:52:25;;;;;;;3.45;3.15;;;;;;;;;;4969651;28;20734;-86
2023/08/21 07:54:55;;;;;;;3.30;3.20;;;;;;;;;;4970247;28;20209;-84
2023/08/21 07:57:24;;;;;;;3.17;3.08;;;;;;;;;;4969405;28;20272;-85
2023/08/21 07:59:51;;;;;;;3.28;3.15;;;;;;;;;;4969098;28;20245;-85
2023/08/21 08:02:20;;;;;;;3.72;3.53;;;;;;;;;;4968455;28;20198;-84
2023/08/21 08:04:49;;;;;;;11.45;3.70;;;;;;;;;;4969148;28;20205;-85
2023/08/21 08:07:17;;;;;;;3.70;3.42;;;;;;;;;;4972234;28;20214;-85
2023/08/21 08:09:51;;;;;;;3.05;2.78;;;;;;;;;;4972293;28;20241;-85
2023/08/21 08:12:24;;;;;;;3.53;2.95;;;;;;;;;;4973338;28;20209;-84
2023/08/21 08:14:56;;;;;;;3.55;3.35;;;;;;;;;;4972322;28;20209;-83
2023/08/21 08:17:27;;;;;;;3.40;3.13;;;;;;;;;;4972784;28;20702;-84
2023/08/21 08:19:55;;;;;;;3.47;3.20;;;;;;;;;;4972784;28;20228;-84
2023/08/21 08:22:28;;;;;;;3.88;3.67;;;;;;;;;;4973137;28;20210;-83
2023/08/21 08:24:56;;;;;;;3.53;3.42;;;;;;;;;;4972709;28;20717;-84
2023/08/21 08:27:25;;;;;;;4.22;3.45;;;;;;;;;;4972748;28;20679;-83
2023/08/21 08:29:53;;;;;;;3.30;3.10;;;;;;;;;;4973543;28;20288;-84
2023/08/21 08:32:21;;;;;;;3.80;3.50;;;;;;;;;;4972854;28;20256;-85
2023/08/21 08:34:50;;;;;;;3.45;3.25;;;;;;;;;;4973113;28;20281;-83
2023/08/21 08:37:18;;;;;;;4.20;3.90;;;;;;;;;;4974914;28;20625;-84
2023/08/21 08:39:47;;;;;;;4.15;3.70;;;;;;;;;;4976161;28;20232;-84
2023/08/21 08:42:14;;;;;;;4.93;3.70;;;;;;;;;;4973026;28;20208;-83
2023/08/21 08:44:44;;;;;;;3.13;3.03;;;;;;;;;;4972817;28;20198;-84
2023/08/21 08:47:13;;;;;;;3.08;2.85;;;;;;;;;;4972548;28;20205;-83
2023/08/21 08:49:44;;;;;;;3.20;3.10;;;;;;;;;;4972569;28;20675;-84
2023/08/21 08:52:14;;;;;;;5.15;3.80;;;;;;;;;;4973234;28;20202;-84
2023/08/21 08:54:43;;;;;;;3.08;2.97;;;;;;;;;;4972478;28;20217;-83
2023/08/21 08:57:14;;;;;;;3.35;3.15;;;;;;;;;;4972779;28;20565;-84
2023/08/21 08:59:42;;;;;;;3.60;3.30;;;;;;;;;;4973001;28;20229;-84
2023/08/21 09:02:10;;;;;;;3.60;3.40;;;;;;;;;;4973724;28;20197;-83
2023/08/21 09:04:38;;;;;;;3.60;3.35;;;;;;;;;;4974058;28;20197;-84
2023/08/21 09:07:09;;;;;;;3.13;2.95;;;;;;;;;;4977452;28;20261;-83
2023/08/21 09:09:40;;;;;;;2.90;2.80;;;;;;;;;;4974736;28;20243;-84
2023/08/21 09:12:14;;;;;;;3.60;3.28;;;;;;;;;;4972106;28;20198;-84
2023/08/21 09:14:44;;;;;;;2.90;2.70;;;;;;;;;;4972866;28;20224;-85
2023/08/21 09:17:13;;;;;;;4.15;3.78;;;;;;;;;;4971665;28;20212;-84
2023/08/21 09:19:42;;;;;;;3.25;3.05;;;;;;;;;;4972168;28;20233;-84
2023/08/21 09:22:11;;;;;;;3.05;2.85;;;;;;;;;;4972292;28;20607;-84
2023/08/21 09:24:40;;;;;;;3.30;3.20;;;;;;;;;;4973386;28;20205;-83
2023/08/21 09:27:17;;;;;;;3.17;3.08;;;;;;;;;;4973328;28;20679;-83
2023/08/21 09:29:47;;;;;;;3.67;3.40;;;;;;;;;;4973297;28;20237;-83
2023/08/21 09:32:17;;;;;;;3.60;3.40;;;;;;;;;;4973366;28;20197;-86
2023/08/21 09:34:46;;;;;;;3.03;2.80;;;;;;;;;;4972323;28;20202;-84
2023/08/21 09:37:14;;;;;;;3.75;3.33;;;;;;;;;;4973602;28;20201;-83
2023/08/21 09:39:47;;;;;;;4.57;2.97;;;;;;;;;;4977514;28;20506;-84
2023/08/21 09:42:19;;;;;;;3.45;3.13;;;;;;;;;;4979748;28;20252;-84
2023/08/21 09:44:49;;;;;;;3.78;3.47;;;;;;;;;;4982575;28;20206;-84
2023/08/21 09:47:17;;;;;;;2.95;2.75;;;;;;;;;;4986026;28;20194;-85
2023/08/21 09:49:48;;;;;;;2.95;2.85;;;;;;;;;;4983464;28;20270;-87
2023/08/21 09:52:16;;;;;;;3.30;3.20;;;;;;;;;;4994378;28;20176;-85
2023/08/21 09:54:45;;;;;;;3.05;2.88;;;;;;;;;;4995072;28;20202;-88
2023/08/21 09:57:16;;;;;;;3.30;3.00;;;;;;;;;;4976507;28;20836;-86
2023/08/21 09:59:49;;;;;;;3.53;3.33;;;;;;;;;;4975652;28;20241;-84
2023/08/21 10:02:19;;;;;;;3.95;3.10;;;;;;;;;;4985145;28;20175;-85
2023/08/21 10:04:52;;;;;;;5.68;2.78;;;;;;;;;;4986004;28;20197;-84
2023/08/21 10:07:51;;;;;;;3.10;2.90;;;;;;;;;;4974150;28;20257;-84
2023/08/21 10:10:24;;;;;;;2.97;2.65;;;;;;;;;;4978762;28;20297;-85
2023/08/21 10:12:52;;;;;;;11.57;2.88;;;;;;;;;;4983211;28;20202;-87
2023/08/21 10:15:25;;;;;;;2.50;2.40;;;;;;;;;;4983242;28;20216;-85
2023/08/21 10:17:52;;;;;;;3.05;2.80;;;;;;;;;;4985670;28;20202;-85
2023/08/21 10:20:22;;;;;;;2.85;2.75;;;;;;;;;;4988678;28;20233;-85
2023/08/21 10:22:51;;;;;;;2.75;2.65;;;;;;;;;;4975518;28;20584;-84
2023/08/21 10:25:21;;;;;;;2.65;2.45;;;;;;;;;;4971289;28;20667;-84
2023/08/21 10:27:54;;;;;;;3.05;2.83;;;;;;;;;;4970472;28;20201;-85
2023/08/21 10:30:26;;;;;;;2.83;2.72;;;;;;;;;;4971406;28;20194;-84
2023/08/21 10:32:55;;;;;;;3.05;2.80;;;;;;;;;;4971625;28;20917;-85
2023/08/21 10:35:34;;;;;;;2.50;2.40;;;;;;;;;;4970971;28;20234;-85
2023/08/21 10:38:17;;;;;;;2.63;2.53;;;;;;;;;;4970845;28;20209;-84
2023/08/21 10:41:02;;;;;;;4.03;3.10;;;;;;;;;;4970702;28;20225;-85
2023/08/21 10:43:38;;;;;;;2.60;2.50;;;;;;;;;;4972230;28;20264;-83
2023/08/21 10:46:33;;;;;;;3.10;2.90;;;;;;;;;;4982830;28;20221;-84
2023/08/21 10:49:04;;;;;;;2.92;2.55;;;;;;;;;;4973269;28;20260;-85
2023/08/21 10:51:32;;;;;;;2.92;2.83;;;;;;;;;;4990333;28;20244;-84
2023/08/21 10:54:14;;;;;;;3.15;3.00;;;;;;;;;;4989307;28;20245;-85
2023/08/21 10:56:43;;;;;;;4.25;2.50;;;;;;;;;;4989920;28;20583;-85
2023/08/21 11:01:49;;;;;;;6.82;3.13;;;;;;;;;;5045429;23;20241;-83
2023/08/21 11:04:22;;;;;;;3.25;3.05;;;;;;;;;;4988943;28;20728;-84
2023/08/21 11:06:53;;;;;;;3.33;3.03;;;;;;;;;;4989159;28;20229;-84
2023/08/21 11:09:23;;;;;;;3.45;3.35;;;;;;;;;;4989798;28;20598;-83
2023/08/21 11:11:51;;;;;;;2.85;2.63;;;;;;;;;;4988381;28;20229;-84
2023/08/21 11:14:19;;;;;;;2.70;2.47;;;;;;;;;;4989222;28;20307;-84
2023/08/21 11:16:49;;;;;;;2.67;2.40;;;;;;;;;;4983939;28;20276;-86
2023/08/21 11:19:36;;;;;;;2.47;2.38;;;;;;;;;;4998599;28;20254;-85
2023/08/21 11:22:11;;;;;;;2.50;2.40;;;;;;;;;;4985284;28;20773;-84
2023/08/21 11:24:43;;;;;;;6.03;3.40;;;;;;;;;;4991184;28;20286;-83
2023/08/21 11:27:11;;;;;;;3.75;2.65;;;;;;;;;;4987917;28;20581;-83
2023/08/21 11:29:43;;;;;;;2.95;2.63;;;;;;;;;;4988341;28;20339;-85
2023/08/21 11:32:13;;;;;;;2.80;2.47;;;;;;;;;;4985908;28;20804;-82
2023/08/21 11:34:41;;;;;;;2.70;2.60;;;;;;;;;;4988576;28;20216;-86
2023/08/21 11:37:12;;;;;;;2.88;2.55;;;;;;;;;;4989187;28;20256;-87
2023/08/21 11:39:49;;;;;;;2.47;2.38;;;;;;;;;;4991272;28;20724;-85
2023/08/21 11:42:20;;;;;;;2.65;2.55;;;;;;;;;;4993106;28;20228;-87
2023/08/21 11:45:06;;;;;;;;;;;;;;;;;;;;;
2023/08/21 11:50:53;;;;;;;2.70;2.60;;;;;;;;;;5031149;28;20251;-86
2023/08/21 11:53:41;;;;;;;3.90;2.70;;;;;;;;;;5022187;28;20630;-85
2023/08/21 11:56:11;;;;;;;3.22;3.03;;;;;;;;;;5012536;28;20224;-85
2023/08/21 11:58:58;;;;;;;2.90;2.67;;;;;;;;;;5015824;28;20228;-85
2023/08/21 12:01:46;;;;;;;2.88;2.72;;;;;;;;;;5007717;28;20236;-86
2023/08/21 12:04:23;;;;;;;3.45;2.45;;;;;;;;;;5010889;28;20228;-86
2023/08/21 12:07:09;;;;;;;2.25;2.15;;;;;;;;;;5007028;28;20227;-86
2023/08/21 12:09:41;;;;;;;5.00;2.70;;;;;;;;;;5012593;28;20329;-85
2023/08/21 12:12:10;;;;;;;3.55;2.45;;;;;;;;;;5008141;28;20231;-86
2023/08/21 12:14:40;;;;;;;2.40;2.30;;;;;;;;;;5013573;28;20311;-86
2023/08/21 12:17:11;;;;;;;2.75;2.65;;;;;;;;;;5015976;28;20378;-84
2023/08/21 12:19:43;;;;;;;2.65;2.47;;;;;;;;;;5020609;28;20260;-84
2023/08/21 12:22:12;;;;;;;3.03;2.58;;;;;;;;;;5017234;28;20307;-85
2023/08/21 12:24:45;;;;;;;2.80;2.55;;;;;;;;;;5019647;28;20231;-85
2023/08/21 12:27:16;;;;;;;2.63;2.42;;;;;;;;;;5018078;28;20943;-85
2023/08/21 12:29:47;;;;;;;4.13;2.83;;;;;;;;;;5034410;28;20234;-85
2023/08/21 12:32:23;;;;;;;4.47;2.63;;;;;;;;;;5032635;28;20216;-84
2023/08/21 12:34:52;;;;;;;2.92;2.72;;;;;;;;;;5035976;28;20267;-86
2023/08/21 12:37:26;;;;;;;2.67;2.58;;;;;;;;;;5034317;28;20220;-85
2023/08/21 12:39:56;;;;;;;2.90;2.60;;;;;;;;;;5035050;28;20216;-86
2023/08/21 12:42:23;;;;;;;2.38;2.28;;;;;;;;;;5034888;28;20220;-86
2023/08/21 12:44:51;;;;;;;2.55;2.35;;;;;;;;;;5035963;28;20383;-86
2023/08/21 12:47:20;;;;;;;2.85;2.65;;;;;;;;;;5017241;28;20241;-84
2023/08/21 12:49:50;;;;;;;2.67;2.58;;;;;;;;;;5016262;28;20224;-85
2023/08/21 12:52:19;;;;;;;2.88;2.67;;;;;;;;;;5018862;28;20216;-85
2023/08/21 12:54:46;;;;;;;3.08;2.88;;;;;;;;;;5030260;28;20208;-85
2023/08/21 12:57:26;;;;;;;3.92;2.65;;;;;;;;;;5034498;28;20255;-86
2023/08/21 12:59:56;;;;;;;2.90;2.70;;;;;;;;;;5023512;28;20228;-84
2023/08/21 13:02:27;;;;;;;3.10;2.90;;;;;;;;;;5022537;28;20307;-86
2023/08/21 13:04:55;;;;;;;2.75;2.28;;;;;;;;;;5018581;28;20221;-86
2023/08/21 13:07:25;;;;;;;2.65;2.53;;;;;;;;;;5019384;28;20577;-85
2023/08/21 13:09:54;;;;;;;2.70;2.60;;;;;;;;;;5011977;28;20227;-84
2023/08/21 13:12:25;;;;;;;2.50;2.40;;;;;;;;;;5019042;28;20254;-85
2023/08/21 13:14:54;;;;;;;2.45;2.25;;;;;;;;;;5017238;28;20232;-85
2023/08/21 13:17:23;;;;;;;3.55;2.85;;;;;;;;;;5010562;28;20224;-86
2023/08/21 13:19:51;;;;;;;2.83;2.72;;;;;;;;;;5009815;28;20239;-86
2023/08/21 13:22:21;;;;;;;2.90;2.80;;;;;;;;;;5010364;28;20228;-84
2023/08/21 13:24:49;;;;;;;2.40;2.30;;;;;;;;;;5024121;28;20259;-83
2023/08/21 13:27:16;;;;;;;2.92;2.83;;;;;;;;;;5029287;28;20286;-84
2023/08/21 13:29:46;;;;;;;3.00;2.60;;;;;;;;;;5026983;28;20303;-86
2023/08/21 13:32:25;;;;;;;2.78;2.53;;;;;;;;;;5028712;28;20232;-83
2023/08/21 13:34:53;;;;;;;2.88;2.78;;;;;;;;;;5025354;28;20231;-85
2023/08/21 13:37:32;;;;;;;;;;;;;;;;;;;;;
2023/08/21 13:40:09;;;;;;;2.53;2.28;;;;;;;;;;5027335;28;20230;-85
2023/08/21 13:42:41;;;;;;;3.00;2.90;;;;;;;;;;5010212;28;20229;-87
2023/08/21 13:45:12;;;;;;;2.45;2.35;;;;;;;;;;4989735;28;20315;-86
2023/08/21 13:47:39;;;;;;;2.65;2.55;;;;;;;;;;4989216;28;20332;-87
2023/08/21 13:50:08;;;;;;;2.50;2.40;;;;;;;;;;4986318;28;20699;-84
2023/08/21 13:52:39;;;;;;;2.88;2.72;;;;;;;;;;4990368;28;20610;-84
2023/08/21 13:55:08;;;;;;;2.70;2.60;;;;;;;;;;4987038;28;20257;-84
2023/08/21 13:57:35;;;;;;;5.63;2.88;;;;;;;;;;4989523;28;20224;-85
2023/08/21 14:00:07;;;;;;;3.30;2.90;;;;;;;;;;4989468;28;20295;-85
2023/08/21 14:02:35;;;;;;;2.60;2.50;;;;;;;;;;4987884;28;20229;-84
2023/08/21 14:05:07;;;;;;;2.83;2.63;;;;;;;;;;4987908;28;20667;-85
2023/08/21 14:07:36;;;;;;;6.75;3.15;;;;;;;;;;4989874;28;20221;-85
2023/08/21 14:10:03;;;;;;;2.42;2.33;;;;;;;;;;4986014;28;20221;-84
2023/08/21 14:12:32;;;;;;;2.33;2.22;;;;;;;;;;4996110;28;20824;-89
2023/08/21 14:15:01;;;;;;;2.45;2.35;;;;;;;;;;5006705;28;20220;-86
2023/08/21 14:17:30;;;;;;;3.13;2.88;;;;;;;;;;5004507;28;20258;-85
2023/08/21 14:20:00;;;;;;;3.20;2.67;;;;;;;;;;5007351;28;20597;-85
2023/08/21 14:22:30;;;;;;;2.70;2.50;;;;;;;;;;5006282;28;20768;-86
2023/08/21 14:24:58;;;;;;;5.10;2.50;;;;;;;;;;5007174;28;20248;-85
2023/08/21 14:27:29;;;;;;;2.58;2.47;;;;;;;;;;5008328;28;20468;-85
2023/08/21 14:29:58;;;;;;;3.10;2.35;;;;;;;;;;5009036;28;20578;-85
2023/08/21 14:32:29;;;;;;;2.72;2.63;;;;;;;;;;5007267;28;20363;-85
2023/08/21 14:34:57;;;;;;;2.92;2.75;;;;;;;;;;5010604;28;20216;-83
2023/08/21 14:37:27;;;;;;;2.65;2.55;;;;;;;;;;5003582;28;20271;-85
2023/08/21 14:39:58;;;;;;;2.78;2.58;;;;;;;;;;5019309;28;20220;-85
2023/08/21 14:42:27;;;;;;;4.30;2.60;;;;;;;;;;5023945;28;20263;-85
2023/08/21 14:44:54;;;;;;;4.70;2.95;;;;;;;;;;5027016;28;20221;-86
2023/08/21 14:47:22;;;;;;;3.28;2.80;;;;;;;;;;5026096;28;20235;-85
2023/08/21 14:49:56;;;;;;;2.75;2.60;;;;;;;;;;5025332;28;20227;-84
2023/08/21 14:52:24;;;;;;;2.25;2.15;;;;;;;;;;5015627;28;20221;-86
2023/08/21 14:55:05;;;;;;;2.78;2.67;;;;;;;;;;5009401;28;20320;-85
2023/08/21 14:57:34;;;;;;;2.47;2.38;;;;;;;;;;5007762;28;20255;-84
2023/08/21 15:00:03;;;;;;;2.80;2.60;;;;;;;;;;5008209;28;20225;-85
2023/08/21 15:02:40;;;;;;;2.47;2.38;;;;;;;;;;5005408;28;20267;-85
2023/08/21 15:05:14;;;;;;;5.07;2.67;;;;;;;;;;5008758;28;20290;-85
2023/08/21 15:07:44;;;;;;;2.97;2.70;;;;;;;;;;5004027;28;20228;-86
2023/08/21 15:10:15;;;;;;;2.35;2.25;;;;;;;;;;5007233;28;20224;-86
2023/08/21 15:12:51;;;;;;;3.33;3.13;;;;;;;;;;5005802;28;20237;-86